Time;durP1;ratioP1;P1;durP2;ratioP2;P2;SDS_P1;SDS_P2;PMS_P1;PMS_P2;Temp;Humidity;BMP_temperature;BMP_pressure;BME280_temperature;BME280_humidity;BME280_pressure;Samples;Min_cycle;Max_cycle;Signal;HPM_P1;HPM_P2
2022/06/19 00:00:09;;;;;;;4.93;4.07;;;;;;;23.22;80.57;100732.53;5092843;28;20437;-71
2022/06/19 00:02:37;;;;;;;5.37;3.00;;;;;;;23.21;80.46;100733.69;5092809;28;20819;-71
2022/06/19 00:05:06;;;;;;;3.67;3.07;;;;;;;23.21;80.64;100719.09;5092486;28;20531;-71
2022/06/19 00:07:33;;;;;;;9.90;3.53;;;;;;;23.20;79.84;100721.06;5092661;28;20495;-71
2022/06/19 00:10:00;;;;;;;4.77;3.20;;;;;;;23.18;79.80;100709.59;5092654;28;20523;-71
2022/06/19 00:12:27;;;;;;;5.97;2.90;;;;;;;23.18;79.40;100704.06;5093331;28;20862;-71
2022/06/19 00:14:53;;;;;;;7.97;3.07;;;;;;;23.15;79.19;100700.09;5096306;28;20523;-71
2022/06/19 00:17:20;;;;;;;3.93;3.40;;;;;;;23.16;78.87;100695.38;5095925;28;20902;-71
2022/06/19 00:19:46;;;;;;;5.70;3.10;;;;;;;23.10;79.42;100696.88;5096492;28;20467;-71
2022/06/19 00:22:14;;;;;;;3.90;3.00;;;;;;;23.05;79.71;100695.28;5096222;28;20871;-71
2022/06/19 00:24:41;;;;;;;4.40;3.40;;;;;;;23.06;79.13;100696.84;5096050;28;20440;-72
2022/06/19 00:27:07;;;;;;;3.47;2.53;;;;;;;23.06;79.25;100694.09;5095675;28;20476;-71
2022/06/19 00:29:34;;;;;;;4.50;2.80;;;;;;;23.03;79.18;100694.88;5095964;28;20630;-71
2022/06/19 00:32:04;;;;;;;7.27;3.30;;;;;;;23.02;79.22;100684.19;5095949;28;20519;-72
2022/06/19 00:34:32;;;;;;;4.23;3.63;;;;;;;23.05;79.31;100681.47;5095952;28;20535;-72
2022/06/19 00:37:01;;;;;;;5.07;3.57;;;;;;;23.04;79.09;100679.09;5095526;28;20978;-72
2022/06/19 00:39:31;;;;;;;4.47;3.37;;;;;;;23.03;79.55;100674.75;5095834;28;20539;-71
2022/06/19 00:41:59;;;;;;;4.53;3.20;;;;;;;23.00;79.32;100650.63;5095845;28;20425;-71
2022/06/19 00:44:25;;;;;;;4.20;3.47;;;;;;;23.01;78.97;100647.47;5095786;28;20438;-71
2022/06/19 00:46:54;;;;;;;4.03;3.10;;;;;;;22.97;78.78;100637.56;5095701;28;20575;-71
2022/06/19 00:49:26;;;;;;;4.40;3.20;;;;;;;22.98;78.79;100637.22;5095621;28;20945;-72
2022/06/19 00:52:01;;;;;;;4.57;3.20;;;;;;;22.95;78.57;100639.94;5095637;28;20515;-72
2022/06/19 00:54:32;;;;;;;4.50;3.00;;;;;;;22.95;78.70;100646.25;5095618;28;20917;-72
2022/06/19 00:56:59;;;;;;;4.17;3.27;;;;;;;22.93;78.94;100645.84;5095495;28;20460;-71
2022/06/19 00:59:26;;;;;;;4.03;3.47;;;;;;;22.92;79.59;100647.03;5095491;28;20464;-71
2022/06/19 01:01:53;;;;;;;3.30;2.50;;;;;;;22.87;79.46;100644.59;5095333;28;20989;-71
2022/06/19 01:04:25;;;;;;;3.63;2.80;;;;;;;22.87;79.43;100645.38;5095403;28;20523;-70
2022/06/19 01:06:52;;;;;;;6.17;3.80;;;;;;;22.84;79.78;100646.16;5095270;28;20551;-70
2022/06/19 01:09:19;;;;;;;4.00;2.80;;;;;;;22.83;80.00;100639.03;5095067;28;20480;-70
2022/06/19 01:11:47;;;;;;;4.27;2.50;;;;;;;22.82;79.37;100620.88;5095450;28;20535;-70
2022/06/19 01:14:18;;;;;;;3.63;2.90;;;;;;;22.80;79.59;100617.72;5095138;28;20482;-70
2022/06/19 01:16:45;;;;;;;4.57;3.23;;;;;;;22.79;79.57;100615.31;5095063;28;20645;-70
2022/06/19 01:19:19;;;;;;;3.57;2.97;;;;;;;22.78;80.00;100609.00;5095094;28;20447;-70
2022/06/19 01:21:52;;;;;;;4.53;2.87;;;;;;;22.75;79.88;100593.19;5095042;28;20459;-70
2022/06/19 01:24:33;;;;;;;4.53;3.73;;;;;;;22.70;79.71;100592.78;5093913;28;20512;-70
2022/06/19 01:27:02;;;;;;;4.33;3.17;;;;;;;22.70;78.95;100592.78;5094693;28;20508;-70
2022/06/19 01:29:31;;;;;;;4.03;3.20;;;;;;;22.71;78.84;100584.13;5094841;28;20623;-70
2022/06/19 01:32:01;;;;;;;3.23;2.77;;;;;;;22.64;79.28;100578.53;5094539;28;20972;-70
2022/06/19 01:34:32;;;;;;;3.90;2.93;;;;;;;22.62;78.93;100572.59;5094823;28;20527;-70
2022/06/19 01:37:04;;;;;;;7.30;4.10;;;;;;;22.62;78.95;100559.59;5094709;28;20460;-71
2022/06/19 01:39:36;;;;;;;4.27;3.30;;;;;;;22.62;78.51;100550.50;5094787;28;20521;-71
2022/06/19 01:42:05;;;;;;;3.47;2.60;;;;;;;22.60;78.88;100550.09;5094713;28;20528;-71
2022/06/19 01:44:33;;;;;;;4.13;2.67;;;;;;;22.59;78.79;100546.53;5094304;28;20863;-71
2022/06/19 01:47:00;;;;;;;4.87;3.40;;;;;;;22.63;79.07;100541.06;5094386;28;20544;-70
2022/06/19 01:49:29;;;;;;;4.77;2.80;;;;;;;22.61;79.20;100540.63;5094456;28;20476;-71
2022/06/19 01:51:56;;;;;;;5.17;3.27;;;;;;;22.63;78.71;100532.78;5094402;28;20490;-70
2022/06/19 01:54:25;;;;;;;5.33;3.17;;;;;;;22.56;78.80;100521.66;5094430;28;20495;-71
2022/06/19 01:56:54;;;;;;;5.63;3.03;;;;;;;22.56;78.72;100513.38;5094275;28;20466;-71
2022/06/19 01:59:24;;;;;;;13.63;3.30;;;;;;;22.57;78.78;100518.50;5094331;28;20460;-70
2022/06/19 02:01:54;;;;;;;4.03;2.53;;;;;;;22.59;78.42;100507.09;5094304;28;20436;-71
2022/06/19 02:04:23;;;;;;;4.20;3.27;;;;;;;22.54;78.21;100504.72;5094292;28;20531;-71
2022/06/19 02:06:52;;;;;;;3.20;2.60;;;;;;;22.49;78.32;100511.38;5093832;28;20452;-71
2022/06/19 02:09:22;;;;;;;4.43;2.93;;;;;;;22.49;78.63;100505.03;5094096;28;20475;-71
2022/06/19 02:11:48;;;;;;;4.37;2.60;;;;;;;22.53;78.10;100508.63;5093806;28;20821;-71
2022/06/19 02:14:16;;;;;;;3.70;3.03;;;;;;;22.53;77.74;100514.16;5093772;28;20949;-71
2022/06/19 02:16:47;;;;;;;7.73;3.00;;;;;;;22.56;78.09;100508.66;5093614;28;20540;-72
2022/06/19 02:19:14;;;;;;;3.70;2.90;;;;;;;22.60;77.72;100501.19;5093984;28;20507;-71
2022/06/19 02:21:43;;;;;;;3.30;2.60;;;;;;;22.63;77.58;100496.88;5093596;28;20993;-71
2022/06/19 02:24:15;;;;;;;2.30;2.10;;;;;;;22.67;77.28;100490.19;5093602;28;20527;-71
2022/06/19 02:26:43;;;;;;;4.50;2.97;;;;;;;22.66;77.40;100482.28;5093503;28;20559;-71
2022/06/19 02:29:15;;;;;;;4.13;2.80;;;;;;;22.65;77.43;100477.94;5093428;28;21055;-71
2022/06/19 02:31:45;;;;;;;4.40;3.30;;;;;;;22.60;77.61;100464.50;5093548;28;20860;-72
2022/06/19 02:34:27;;;;;;;4.33;3.10;;;;;;;22.62;77.51;100462.94;5093675;28;20436;-71
2022/06/19 02:36:58;;;;;;;3.73;2.47;;;;;;;22.62;77.41;100451.91;5093330;28;20496;-71
2022/06/19 02:39:34;;;;;;;4.83;2.80;;;;;;;22.62;77.45;100445.56;5093746;28;20432;-71
2022/06/19 02:42:18;;;;;;;4.07;3.00;;;;;;;22.55;77.68;100442.78;5093679;28;20439;-71
2022/06/19 02:44:45;;;;;;;7.40;2.70;;;;;;;22.56;77.52;100441.59;5093648;28;20500;-70
2022/06/19 02:47:13;;;;;;;3.43;2.70;;;;;;;22.55;77.28;100435.28;5093526;28;20547;-70
2022/06/19 02:49:40;;;;;;;2.80;2.37;;;;;;;22.57;76.89;100434.91;5093482;28;20579;-70
2022/06/19 02:52:08;;;;;;;3.40;2.97;;;;;;;22.55;76.84;100424.25;5093197;28;20440;-70
2022/06/19 02:54:35;;;;;;;2.60;2.40;;;;;;;22.60;77.10;100420.31;5093197;28;20885;-70
2022/06/19 02:57:02;;;;;;;4.00;2.70;;;;;;;22.64;77.15;100423.91;5093371;28;20467;-70
2022/06/19 02:59:29;;;;;;;3.40;2.90;;;;;;;22.58;76.99;100420.72;5093473;28;20531;-71
2022/06/19 03:01:56;;;;;;;6.07;3.80;;;;;;;22.55;77.52;100413.19;5093314;28;20436;-71
2022/06/19 03:04:26;;;;;;;3.27;2.57;;;;;;;22.58;77.15;100409.69;5093329;28;20443;-71
2022/06/19 03:06:54;;;;;;;8.70;3.27;;;;;;;22.61;77.14;100405.34;5093559;28;20459;-70
2022/06/19 03:09:22;;;;;;;2.93;2.63;;;;;;;22.58;77.43;100406.13;5093277;28;20492;-71
2022/06/19 03:11:49;;;;;;;3.40;2.80;;;;;;;22.53;77.72;100396.22;5093238;28;20530;-71
2022/06/19 03:14:15;;;;;;;7.10;3.90;;;;;;;22.55;77.65;100398.59;5093300;28;20531;-71
2022/06/19 03:16:42;;;;;;;4.43;3.30;;;;;;;22.54;77.81;100395.06;5093165;28;20499;-70
2022/06/19 03:19:09;;;;;;;4.70;3.43;;;;;;;22.51;77.66;100387.53;5093228;28;20475;-70
2022/06/19 03:21:37;;;;;;;6.63;3.50;;;;;;;22.55;77.70;100384.81;5093177;28;20466;-71
2022/06/19 03:24:04;;;;;;;4.80;3.20;;;;;;;22.56;77.78;100380.88;5093150;28;20444;-71
2022/06/19 03:26:31;;;;;;;4.20;3.33;;;;;;;22.55;77.22;100373.75;5093986;28;20574;-71
2022/06/19 03:28:58;;;;;;;6.07;3.17;;;;;;;22.61;77.47;100373.00;5093046;28;20444;-71
2022/06/19 03:31:27;;;;;;;3.70;3.10;;;;;;;22.65;77.21;100361.97;5092829;28;20447;-71
2022/06/19 03:33:54;;;;;;;6.70;2.87;;;;;;;22.60;77.23;100352.09;5092803;28;20956;-71
2022/06/19 03:36:21;;;;;;;4.00;3.00;;;;;;;22.66;77.13;100344.22;5092995;28;20459;-71
2022/06/19 03:38:49;;;;;;;5.10;3.50;;;;;;;22.69;77.24;100346.19;5092693;28;21040;-71
2022/06/19 03:41:16;;;;;;;5.57;3.60;;;;;;;22.72;77.09;100339.13;5093020;28;20439;-71
2022/06/19 03:43:43;;;;;;;3.33;3.03;;;;;;;22.75;76.83;100339.09;5093028;28;20516;-71
2022/06/19 03:46:13;;;;;;;4.70;3.30;;;;;;;22.78;77.04;100348.59;5092865;28;20452;-71
2022/06/19 03:48:40;;;;;;;5.20;3.47;;;;;;;22.77;77.37;100347.81;5096257;28;20425;-71
2022/06/19 03:51:07;;;;;;;7.97;3.83;;;;;;;22.78;76.89;100341.09;5096756;28;20480;-71
2022/06/19 03:53:34;;;;;;;5.60;3.80;;;;;;;22.74;77.42;100320.19;5096695;28;20534;-71
2022/06/19 03:56:03;;;;;;;5.30;4.03;;;;;;;22.75;77.50;100322.53;5096371;28;21000;-71
2022/06/19 03:58:45;;;;;;;3.30;3.00;;;;;;;22.82;77.62;100322.56;5096393;28;20513;-71
2022/06/19 04:01:12;;;;;;;7.60;3.70;;;;;;;22.81;77.82;100314.69;5096901;28;20428;-70
2022/06/19 04:03:39;;;;;;;6.20;3.43;;;;;;;22.83;77.27;100313.09;5096561;28;20440;-71
2022/06/19 04:06:06;;;;;;;4.40;3.33;;;;;;;22.85;77.32;100308.00;5096438;28;20815;-71
2022/06/19 04:08:33;;;;;;;3.90;3.37;;;;;;;22.90;78.53;100299.34;5096517;28;20455;-71
2022/06/19 04:11:00;;;;;;;5.87;3.53;;;;;;;22.95;78.27;100305.66;5096390;28;20571;-70
2022/06/19 04:13:27;;;;;;;4.63;3.80;;;;;;;22.92;78.28;100287.88;5096392;28;20450;-71
2022/06/19 04:15:54;;;;;;;3.83;3.40;;;;;;;22.88;77.55;100282.31;5096130;28;20554;-71
2022/06/19 04:18:21;;;;;;;4.97;3.57;;;;;;;22.93;76.90;100289.47;5096241;28;20527;-72
2022/06/19 04:20:48;;;;;;;7.17;3.80;;;;;;;22.95;77.30;100278.81;5095848;28;20898;-69
2022/06/19 04:23:14;;;;;;;5.00;4.27;;;;;;;23.01;77.09;100276.47;5096136;28;20501;-70
2022/06/19 04:25:43;;;;;;;7.37;5.40;;;;;;;23.05;76.92;100274.50;5095962;28;20559;-73
2022/06/19 04:28:10;;;;;;;3.77;3.33;;;;;;;23.06;76.52;100273.31;5095839;28;20440;-72
2022/06/19 04:30:40;;;;;;;5.07;3.87;;;;;;;23.02;76.61;100264.22;5095657;28;20475;-71
2022/06/19 04:33:06;;;;;;;6.20;4.27;;;;;;;23.12;75.96;100275.28;5095674;28;21018;-71
2022/06/19 04:35:33;;;;;;;4.97;4.13;;;;;;;23.15;75.66;100266.22;5095860;28;20451;-72
2022/06/19 04:38:00;;;;;;;4.17;3.77;;;;;;;23.18;75.78;100267.38;5095976;28;20471;-72
2022/06/19 04:40:28;;;;;;;4.40;3.67;;;;;;;23.21;75.77;100266.63;5095628;28;20892;-71
2022/06/19 04:42:55;;;;;;;8.60;4.60;;;;;;;23.21;75.88;100274.91;5095542;28;20445;-72
2022/06/19 04:45:21;;;;;;;5.43;4.47;;;;;;;23.28;74.64;100277.66;5095720;28;20450;-72
2022/06/19 04:47:49;;;;;;;4.70;3.83;;;;;;;23.34;74.66;100276.09;5095463;28;20870;-72
2022/06/19 04:50:16;;;;;;;5.90;4.40;;;;;;;23.41;73.84;100275.28;5095368;28;20484;-70
2022/06/19 04:52:43;;;;;;;8.50;4.77;;;;;;;23.44;74.80;100263.44;5095637;28;20451;-70
2022/06/19 04:55:11;;;;;;;7.67;3.93;;;;;;;23.41;75.64;100259.47;5095245;28;20844;-70
2022/06/19 04:57:38;;;;;;;4.23;3.60;;;;;;;23.39;75.99;100259.09;5095507;28;20892;-70
2022/06/19 05:00:06;;;;;;;10.13;5.27;;;;;;;23.45;74.44;100255.94;5095227;28;20439;-70
2022/06/19 05:02:33;;;;;;;5.30;4.00;;;;;;;23.45;74.79;100253.16;5095494;28;20444;-70
2022/06/19 05:05:01;;;;;;;6.37;4.30;;;;;;;23.47;75.63;100250.81;5095419;28;20445;-70
2022/06/19 05:07:28;;;;;;;6.03;4.50;;;;;;;23.49;75.45;100260.28;5095557;28;20552;-70
2022/06/19 05:09:54;;;;;;;9.53;4.10;;;;;;;23.55;74.72;100250.41;5094954;28;21068;-71
2022/06/19 05:12:21;;;;;;;9.07;3.83;;;;;;;23.60;74.52;100243.69;5095304;28;20532;-70
2022/06/19 05:14:47;;;;;;;7.73;4.27;;;;;;;23.67;73.46;100243.69;5094909;28;20952;-70
2022/06/19 05:17:14;;;;;;;8.80;4.40;;;;;;;23.70;74.45;100239.34;5095121;28;20460;-71
2022/06/19 05:19:41;;;;;;;9.20;4.53;;;;;;;23.77;73.87;100236.53;5095102;28;20443;-71
2022/06/19 05:22:09;;;;;;;5.60;4.60;;;;;;;23.83;72.26;100224.66;5095116;28;20791;-70
2022/06/19 05:24:36;;;;;;;8.23;3.80;;;;;;;23.94;71.04;100218.31;5095330;28;20536;-71
2022/06/19 05:27:06;;;;;;;4.50;3.97;;;;;;;23.96;71.54;100216.72;5094538;28;20557;-71
2022/06/19 05:29:32;;;;;;;5.90;4.30;;;;;;;24.00;69.84;100213.94;5094564;28;20818;-71
2022/06/19 05:31:59;;;;;;;6.43;4.00;;;;;;;24.09;69.56;100209.56;5094825;28;20436;-70
2022/06/19 05:34:25;;;;;;;6.10;3.90;;;;;;;24.24;68.43;100209.47;5094515;28;21010;-71
2022/06/19 05:36:52;;;;;;;5.50;4.07;;;;;;;24.32;69.76;100209.03;5094701;28;20547;-71
2022/06/19 05:39:20;;;;;;;4.90;4.40;;;;;;;24.32;70.23;100191.66;5094930;28;20447;-71
2022/06/19 05:41:46;;;;;;;4.77;3.80;;;;;;;24.40;68.09;100199.53;5094636;28;20476;-71
2022/06/19 05:44:14;;;;;;;13.57;4.17;;;;;;;24.42;69.99;100194.38;5094299;28;20940;-71
2022/06/19 05:46:41;;;;;;;4.07;3.70;;;;;;;24.53;66.72;100188.78;5094227;28;20466;-71
2022/06/19 05:49:08;;;;;;;4.20;3.80;;;;;;;24.66;65.58;100186.31;5094240;28;20454;-71
2022/06/19 05:51:35;;;;;;;5.83;4.77;;;;;;;24.76;64.61;100184.66;5094425;28;20554;-71
2022/06/19 05:54:02;;;;;;;4.93;3.70;;;;;;;24.82;65.60;100178.25;5094500;28;20519;-72
2022/06/19 05:56:30;;;;;;;5.33;4.03;;;;;;;24.86;66.05;100189.31;5094407;28;20488;-71
2022/06/19 05:58:56;;;;;;;4.67;3.50;;;;;;;24.96;64.09;100185.66;5094355;28;20440;-71
2022/06/19 06:01:24;;;;;;;6.07;3.90;;;;;;;25.07;62.63;100178.06;5094028;28;20529;-71
2022/06/19 06:03:51;;;;;;;4.57;3.77;;;;;;;25.17;63.26;100181.94;5094280;28;20868;-71
2022/06/19 06:06:21;;;;;;;8.10;3.93;;;;;;;25.27;63.03;100174.72;5094173;28;20456;-71
2022/06/19 06:08:48;;;;;;;5.60;4.17;;;;;;;25.36;61.08;100175.81;5094158;28;20461;-71
2022/06/19 06:11:15;;;;;;;10.53;3.80;;;;;;;25.46;61.85;100159.50;5093449;28;20555;-71
2022/06/19 06:13:43;;;;;;;6.20;3.77;;;;;;;25.49;61.29;100164.19;5094081;28;20439;-71
2022/06/19 06:16:16;;;;;;;11.40;3.63;;;;;;;25.56;61.15;100166.91;5094010;28;20543;-71
2022/06/19 06:18:43;;;;;;;8.13;4.27;;;;;;;25.65;59.43;100151.31;5094076;28;20516;-70
2022/06/19 06:21:13;;;;;;;5.63;4.40;;;;;;;25.74;59.13;100148.06;5093997;28;20531;-70
2022/06/19 06:23:41;;;;;;;7.60;3.53;;;;;;;25.86;59.04;100143.97;5093964;28;20527;-71
2022/06/19 06:26:10;;;;;;;4.93;3.30;;;;;;;25.92;59.05;100137.53;5093410;28;20997;-71
2022/06/19 06:28:38;;;;;;;4.73;3.20;;;;;;;26.04;59.65;100127.88;5093849;28;20480;-71
2022/06/19 06:31:06;;;;;;;4.43;3.40;;;;;;;26.17;59.38;100119.75;5093438;28;20484;-71
2022/06/19 06:33:33;;;;;;;3.83;3.17;;;;;;;26.26;57.70;100117.25;5093811;28;20436;-71
2022/06/19 06:36:00;;;;;;;6.70;3.70;;;;;;;26.36;57.09;100123.84;5093560;28;20464;-70
2022/06/19 06:38:28;;;;;;;7.13;2.97;;;;;;;26.45;56.17;100120.56;5093887;28;20490;-70
2022/06/19 06:40:55;;;;;;;6.77;3.50;;;;;;;26.55;54.50;100111.25;5093599;28;20440;-71
2022/06/19 06:43:22;;;;;;;3.57;2.43;;;;;;;26.63;55.31;100107.94;5093919;28;20443;-71
2022/06/19 06:45:49;;;;;;;5.07;3.53;;;;;;;26.75;54.77;100103.78;5093430;28;20540;-71
2022/06/19 06:48:18;;;;;;;4.57;2.97;;;;;;;26.84;54.14;100108.78;5093588;28;20539;-71
2022/06/19 06:50:45;;;;;;;4.57;3.40;;;;;;;26.90;54.64;100102.31;5093129;28;20480;-71
2022/06/19 06:53:13;;;;;;;8.60;3.60;;;;;;;27.02;54.47;100100.91;5093526;28;20451;-71
2022/06/19 06:55:40;;;;;;;13.47;3.70;;;;;;;27.12;53.93;100096.38;5093395;28;20460;-71
2022/06/19 06:58:06;;;;;;;4.37;2.73;;;;;;;27.22;53.89;100100.16;5093480;28;20444;-71
2022/06/19 07:00:34;;;;;;;5.90;3.30;;;;;;;27.29;53.10;100092.47;5093446;28;20821;-71
2022/06/19 07:03:00;;;;;;;4.10;2.70;;;;;;;27.44;53.75;100086.63;5093363;28;20528;-71
2022/06/19 07:05:29;;;;;;;10.07;3.67;;;;;;;27.59;51.91;100079.56;5093272;28;20547;-71
2022/06/19 07:07:56;;;;;;;7.07;3.50;;;;;;;27.73;51.83;100084.84;5093343;28;20447;-72
2022/06/19 07:10:23;;;;;;;2.80;2.20;;;;;;;27.75;53.13;100071.28;5093257;28;20902;-72
2022/06/19 07:12:50;;;;;;;4.10;3.13;;;;;;;27.78;54.07;100072.41;5093170;28;20479;-72
2022/06/19 07:15:17;;;;;;;7.93;2.93;;;;;;;27.78;51.63;100064.84;5093218;28;20444;-72
2022/06/19 07:17:43;;;;;;;4.70;2.73;;;;;;;27.96;51.30;100070.03;5092914;28;20451;-72
2022/06/19 07:20:11;;;;;;;3.10;2.50;;;;;;;28.15;50.35;100073.94;5093308;28;20867;-71
2022/06/19 07:22:39;;;;;;;6.60;3.30;;;;;;;28.30;50.12;100077.97;5096342;28;20450;-71
2022/06/19 07:25:07;;;;;;;6.67;2.70;;;;;;;28.38;50.13;100082.19;5097266;28;20436;-71
2022/06/19 07:27:35;;;;;;;5.83;3.07;;;;;;;28.45;49.35;100070.06;5097108;28;20474;-72
2022/06/19 07:30:02;;;;;;;4.77;3.17;;;;;;;28.62;47.96;100080.00;5096963;28;21004;-71
2022/06/19 07:32:29;;;;;;;4.60;2.40;;;;;;;28.81;47.43;100069.16;5096869;28;21009;-71
2022/06/19 07:34:55;;;;;;;6.23;3.53;;;;;;;28.93;47.07;100082.38;5097102;28;20446;-71
2022/06/19 07:37:22;;;;;;;6.53;3.27;;;;;;;29.12;47.39;100089.06;5097066;28;20457;-72
2022/06/19 07:39:50;;;;;;;3.50;2.50;;;;;;;29.22;47.65;100095.56;5097012;28;20531;-71
2022/06/19 07:42:16;;;;;;;3.03;2.73;;;;;;;29.34;46.01;100106.00;5096682;28;20484;-71
2022/06/19 07:44:43;;;;;;;4.53;3.33;;;;;;;29.39;45.42;100120.19;5096604;28;20890;-72
2022/06/19 07:50:15;;;;;;;5.03;2.90;;;;;;;29.64;44.75;100116.72;5096744;28;20412;-72
2022/06/19 07:52:43;;;;;;;7.40;3.10;;;;;;;29.80;44.99;100107.47;5096761;28;20490;-72
2022/06/19 07:55:14;;;;;;;8.00;3.87;;;;;;;29.97;44.85;100110.16;5096391;28;20521;-72
2022/06/19 07:57:41;;;;;;;4.60;3.50;;;;;;;30.06;44.42;100108.28;5096702;28;20479;-72
2022/06/19 08:00:11;;;;;;;5.70;3.13;;;;;;;30.17;44.94;100115.56;5096691;28;20821;-71
2022/06/19 08:02:37;;;;;;;7.90;3.53;;;;;;;30.29;44.07;100092.44;5096615;28;20444;-72
2022/06/19 08:05:05;;;;;;;3.53;3.23;;;;;;;30.32;43.48;100102.69;5096586;28;20527;-74
2022/06/19 08:07:32;;;;;;;5.00;2.87;;;;;;;30.30;44.36;100097.56;5096467;28;20462;-75
2022/06/19 08:09:58;;;;;;;4.73;3.00;;;;;;;30.22;45.51;100079.47;5096538;28;20451;-74
2022/06/19 08:12:26;;;;;;;5.10;3.57;;;;;;;30.24;46.49;100071.44;5096447;28;20486;-74
2022/06/19 08:14:53;;;;;;;6.30;3.20;;;;;;;30.43;42.29;100077.22;5096100;28;20930;-75
2022/06/19 08:17:20;;;;;;;5.97;2.63;;;;;;;30.57;41.79;100071.13;5096343;28;20554;-75
2022/06/19 08:19:47;;;;;;;5.07;3.07;;;;;;;30.82;43.75;100073.13;5096369;28;20852;-75
2022/06/19 08:22:13;;;;;;;2.90;2.53;;;;;;;30.94;41.42;100071.50;5096016;28;20938;-74
2022/06/19 08:24:40;;;;;;;3.77;2.80;;;;;;;31.05;40.93;100060.72;5095938;28;20455;-74
2022/06/19 08:27:07;;;;;;;6.03;2.73;;;;;;;31.15;40.48;100057.50;5095875;28;20483;-74
2022/06/19 08:29:36;;;;;;;3.60;2.23;;;;;;;31.19;42.24;100042.63;5095839;28;20455;-75
2022/06/19 08:32:03;;;;;;;6.90;2.70;;;;;;;31.10;40.70;100051.72;5095996;28;20484;-74
2022/06/19 08:34:29;;;;;;;5.10;2.40;;;;;;;31.25;41.96;100049.94;5095374;28;20481;-75
2022/06/19 08:36:59;;;;;;;5.27;2.40;;;;;;;31.25;39.78;100058.34;5095834;28;20465;-75
2022/06/19 08:39:26;;;;;;;6.53;1.97;;;;;;;31.39;38.44;100069.06;5095587;28;20937;-74
2022/06/19 08:42:07;;;;;;;6.47;1.80;;;;;;;31.75;37.97;100052.94;5095753;28;20432;-75
2022/06/19 08:45:13;;;;;;;5.80;1.70;;;;;;;31.98;36.18;100048.84;5095920;28;20516;-74
2022/06/19 08:48:12;;;;;;;10.73;1.77;;;;;;;32.22;35.99;100060.25;5054052;28;20464;-75
2022/06/19 08:50:47;;;;;;;4.80;1.37;;;;;;;32.29;34.46;100055.16;5095702;28;20527;-74
2022/06/19 08:53:28;;;;;;;13.63;2.20;;;;;;;32.42;35.61;100045.88;5095557;28;20424;-74
2022/06/19 08:56:01;;;;;;;5.17;1.90;;;;;;;32.63;33.89;100042.16;5095364;28;20464;-73
2022/06/19 08:58:34;;;;;;;6.97;2.53;;;;;;;32.92;33.29;100038.13;5095582;28;20429;-74
2022/06/19 09:01:11;;;;;;;9.23;1.50;;;;;;;32.85;34.30;100042.78;5095511;28;20417;-74
2022/06/19 09:06:45;;;;;;;2.40;1.30;;;;;;;32.85;33.51;100048.41;5095402;28;20443;-74
2022/06/19 09:09:30;;;;;;;4.53;2.10;;;;;;;32.84;34.14;100049.63;5095412;28;20452;-74
2022/06/19 09:12:08;;;;;;;3.30;1.23;;;;;;;32.94;34.24;100044.03;5094968;28;21077;-74
2022/06/19 09:14:37;;;;;;;3.80;1.33;;;;;;;33.08;33.79;100052.63;5095323;28;20424;-73
2022/06/19 09:17:11;;;;;;;7.10;1.40;;;;;;;33.28;33.06;100054.13;5094807;28;20463;-74
2022/06/19 09:19:48;;;;;;;2.60;1.90;;;;;;;33.39;32.13;100041.16;5095183;28;20818;-73
2022/06/19 09:22:35;;;;;;;5.93;1.53;;;;;;;33.26;33.62;100046.19;5094868;28;20836;-74
2022/06/19 09:25:20;;;;;;;5.77;1.60;;;;;;;33.30;33.29;100041.19;5094730;28;20432;-73
2022/06/19 09:27:53;;;;;;;4.00;1.30;;;;;;;33.27;33.01;100044.94;5095047;28;20486;-75
2022/06/19 09:30:27;;;;;;;19.63;1.43;;;;;;;33.43;32.96;100031.81;5094674;28;20519;-72
2022/06/19 09:33:00;;;;;;;3.57;1.53;;;;;;;33.60;32.03;100018.97;5094855;28;20471;-73
2022/06/19 09:35:34;;;;;;;2.80;1.33;;;;;;;33.66;32.53;100033.94;5094677;28;20506;-74
2022/06/19 09:38:06;;;;;;;6.10;2.10;;;;;;;33.63;32.43;100015.22;5094817;28;20421;-74
2022/06/19 09:40:36;;;;;;;3.93;1.70;;;;;;;33.71;31.48;100024.88;5094792;28;20787;-72
2022/06/19 09:43:09;;;;;;;1.80;1.47;;;;;;;33.75;32.04;100019.84;5094340;28;21009;-75
2022/06/19 09:45:40;;;;;;;1.23;0.97;;;;;;;33.68;32.51;100025.81;5093410;28;20982;-74
2022/06/19 09:48:21;;;;;;;4.33;1.77;;;;;;;33.75;32.48;100014.22;5094333;28;20952;-75
2022/06/19 09:50:52;;;;;;;5.40;1.97;;;;;;;33.88;31.85;100014.78;5094599;28;20431;-75
2022/06/19 09:53:27;;;;;;;8.23;1.83;;;;;;;34.01;31.54;100025.06;5094588;28;20478;-73
2022/06/19 09:56:00;;;;;;;2.23;1.40;;;;;;;34.13;31.90;100032.47;5094392;28;20467;-73
2022/06/19 09:58:34;;;;;;;4.13;1.80;;;;;;;34.09;31.70;100015.00;5094236;28;20520;-73
2022/06/19 10:01:04;;;;;;;3.00;1.80;;;;;;;34.03;32.39;100005.69;5094391;28;20428;-73
2022/06/19 10:03:37;;;;;;;4.70;1.20;;;;;;;34.11;32.33;100001.25;5094386;28;20527;-72
2022/06/19 10:06:10;;;;;;;2.17;1.50;;;;;;;34.25;31.75;100008.97;5093993;28;20480;-73
2022/06/19 10:08:44;;;;;;;3.53;1.80;;;;;;;34.29;31.84;100011.63;5094314;28;20439;-73
2022/06/19 10:11:15;;;;;;;4.60;2.03;;;;;;;34.34;31.74;99994.84;5094200;28;20425;-73
2022/06/19 10:13:49;;;;;;;3.17;1.57;;;;;;;34.43;31.20;100002.44;5094133;28;20508;-74
2022/06/19 10:16:24;;;;;;;3.03;1.33;;;;;;;34.43;31.68;99996.81;5094095;28;20501;-72
2022/06/19 10:18:54;;;;;;;5.03;1.80;;;;;;;34.39;31.73;99997.00;5094333;28;20428;-73
2022/06/19 10:24:19;;;;;;;4.97;1.47;;;;;;;34.55;31.82;99992.22;5093945;28;20416;-74
2022/06/19 10:26:57;;;;;;;1.47;1.23;;;;;;;34.66;31.05;99992.44;5093670;28;20522;-74
2022/06/19 10:29:39;;;;;;;4.07;1.37;;;;;;;34.72;31.05;99998.19;5093843;28;20452;-73
2022/06/19 10:32:19;;;;;;;6.93;1.77;;;;;;;34.83;30.93;100004.78;5093786;28;20468;-73
2022/06/19 10:35:00;;;;;;;3.03;1.47;;;;;;;34.79;31.81;99986.53;5093574;28;20512;-73
2022/06/19 10:37:49;;;;;;;9.50;1.63;;;;;;;34.89;30.85;99982.41;5093492;28;20467;-75
2022/06/19 10:40:30;;;;;;;2.10;1.60;;;;;;;35.01;32.29;99981.34;5093620;28;20425;-73
2022/06/19 10:43:07;;;;;;;2.63;1.40;;;;;;;35.23;31.49;99980.94;5093360;28;20425;-72
2022/06/19 10:45:39;;;;;;;6.93;2.23;;;;;;;35.37;30.50;99979.38;5093105;28;20482;-74
2022/06/19 10:48:22;;;;;;;5.40;2.03;;;;;;;35.43;30.41;99973.84;5093022;28;20453;-73
2022/06/19 10:51:10;;;;;;;2.17;1.50;;;;;;;35.32;30.79;99972.41;5094439;28;20416;-72
2022/06/19 10:54:07;;;;;;;7.20;2.27;;;;;;;35.35;30.59;99977.06;5093459;28;20421;-75
2022/06/19 10:56:46;;;;;;;4.70;1.77;;;;;;;35.32;31.02;99971.63;5093191;28;20463;-74
2022/06/19 10:59:17;;;;;;;2.67;1.50;;;;;;;35.44;30.80;99969.78;5093300;28;20855;-74
2022/06/19 11:04:53;;;;;;;4.90;1.70;;;;;;;35.70;31.51;99962.25;5093188;28;20442;-74
2022/06/19 11:07:25;;;;;;;5.40;1.70;;;;;;;35.91;30.54;99965.13;5093320;28;20456;-75
2022/06/19 11:09:55;;;;;;;2.00;1.53;;;;;;;36.04;29.71;99954.31;5093340;28;20478;-75
2022/06/19 11:12:29;;;;;;;3.47;1.90;;;;;;;36.12;30.36;99958.22;5092934;28;20503;-75
2022/06/19 11:15:00;;;;;;;2.60;1.30;;;;;;;36.25;30.59;99955.06;5093000;28;20436;-75
2022/06/19 11:17:38;;;;;;;1.87;1.30;;;;;;;36.43;31.01;99973.72;5092873;28;20970;-75
2022/06/19 11:20:24;;;;;;;7.20;1.83;;;;;;;36.50;29.15;99982.56;5093136;28;20432;-75
2022/06/19 11:22:58;;;;;;;3.47;1.90;;;;;;;36.50;29.06;99981.81;5093174;28;20420;-75
2022/06/19 11:25:33;;;;;;;3.40;1.37;;;;;;;36.68;30.09;99963.78;5092616;28;20779;-75
2022/06/19 11:28:05;;;;;;;4.53;1.70;;;;;;;36.79;31.34;99975.16;5093199;28;20481;-75
2022/06/19 11:30:38;;;;;;;5.13;2.27;;;;;;;36.83;33.32;99990.63;5093091;28;20420;-76
2022/06/19 11:33:10;;;;;;;4.83;2.50;;;;;;;36.55;34.78;99998.03;5092730;28;20465;-75
2022/06/19 11:35:39;;;;;;;6.17;2.20;;;;;;;35.96;35.59;100006.72;5093161;28;20793;-73
2022/06/19 11:38:08;;;;;;;3.80;2.63;;;;;;;35.89;35.47;100000.19;5092903;28;21002;-73
2022/06/19 11:40:38;;;;;;;5.30;2.23;;;;;;;35.97;36.93;100014.69;5093128;28;20624;-75
2022/06/19 11:43:06;;;;;;;3.43;2.63;;;;;;;36.05;37.22;100023.53;5092910;28;20529;-75
2022/06/19 11:45:35;;;;;;;6.87;3.47;;;;;;;35.78;38.37;100042.34;5092821;28;20527;-76
2022/06/19 11:48:14;;;;;;;10.47;2.90;;;;;;;35.62;38.30;100042.84;5092840;28;20444;-76
2022/06/19 11:50:51;;;;;;;2.90;2.17;;;;;;;35.75;37.34;100043.31;5093180;28;20427;-76